createdAt,value
2022-08-27T00:00:10.007Z,1010.35
2022-08-27T00:00:48.981Z,1010.30
2022-08-27T00:01:49.045Z,1010.26
2022-08-27T00:02:49.030Z,1010.24
2022-08-27T00:03:48.980Z,1010.21
2022-08-27T00:04:48.942Z,1010.21
2022-08-27T00:06:09.910Z,1010.22
2022-08-27T00:06:48.919Z,1010.20
2022-08-27T00:07:48.873Z,1010.20
2022-08-27T00:08:48.873Z,1010.22
2022-08-27T00:09:48.834Z,1010.22
2022-08-27T00:10:48.829Z,1010.21
2022-08-27T00:12:09.834Z,1010.19
2022-08-27T00:12:48.795Z,1010.19
2022-08-27T00:13:48.801Z,1010.19
2022-08-27T00:14:48.753Z,1010.20
2022-08-27T00:15:48.772Z,1010.22
2022-08-27T00:16:48.767Z,1010.23
2022-08-27T00:18:09.830Z,1010.22
2022-08-27T00:18:48.698Z,1010.23
2022-08-27T00:19:49.560Z,1010.25
2022-08-27T00:20:48.670Z,1010.21
2022-08-27T00:21:48.652Z,1010.22
2022-08-27T00:22:48.644Z,1010.24
2022-08-27T00:24:09.606Z,1010.21
2022-08-27T00:24:49.277Z,1010.24
2022-08-27T00:25:48.577Z,1010.24
2022-08-27T00:26:48.593Z,1010.22
2022-08-27T00:27:48.546Z,1010.21
2022-08-27T00:28:48.560Z,1010.19
2022-08-27T00:30:09.545Z,1010.21
2022-08-27T00:30:49.077Z,1010.19
2022-08-27T00:31:52.982Z,1010.15
2022-08-27T00:32:48.483Z,1010.16
2022-08-27T00:33:48.467Z,1010.17
2022-08-27T00:34:48.429Z,1010.17
2022-08-27T00:36:09.441Z,1010.14
2022-08-27T00:36:48.398Z,1010.13
2022-08-27T00:37:48.420Z,1010.13
2022-08-27T00:38:48.364Z,1010.15
2022-08-27T00:39:48.360Z,1010.09
2022-08-27T00:40:48.335Z,1010.09
2022-08-27T00:42:09.320Z,1010.08
2022-08-27T00:42:48.432Z,1010.08
2022-08-27T00:43:48.287Z,1010.02
2022-08-27T00:44:48.295Z,1010.02
2022-08-27T00:45:48.398Z,1010.02
2022-08-27T00:46:48.268Z,1010.00
2022-08-27T00:48:09.369Z,1009.97
2022-08-27T00:48:48.230Z,1009.99
2022-08-27T00:49:48.182Z,1009.98
2022-08-27T00:50:49.089Z,1009.96
2022-08-27T00:51:48.183Z,1009.95
2022-08-27T00:52:48.156Z,1009.94
2022-08-27T00:54:09.149Z,1009.93
2022-08-27T00:54:48.117Z,1009.87
2022-08-27T00:55:48.121Z,1009.90
2022-08-27T00:56:51.847Z,1009.89
2022-08-27T00:57:48.064Z,1009.83
2022-08-27T00:58:48.039Z,1009.84
2022-08-27T01:00:09.037Z,1009.87
2022-08-27T01:00:48.156Z,1009.84
2022-08-27T01:01:48.044Z,1009.85
2022-08-27T01:02:48.018Z,1009.80
2022-08-27T01:03:47.976Z,1009.82
2022-08-27T01:04:47.960Z,1009.84
2022-08-27T01:06:08.961Z,1009.81
2022-08-27T01:06:47.933Z,1009.82
2022-08-27T01:07:47.897Z,1009.79
2022-08-27T01:08:48.587Z,1009.79
2022-08-27T01:09:47.855Z,1009.78
2022-08-27T01:10:47.866Z,1009.79
2022-08-27T01:12:08.897Z,1009.78
2022-08-27T01:12:53.380Z,1009.76
2022-08-27T01:13:59.565Z,1009.75
2022-08-27T01:14:47.778Z,1009.76
2022-08-27T01:15:47.781Z,1009.72
2022-08-27T01:16:47.753Z,1009.75
2022-08-27T01:18:08.944Z,1009.76
2022-08-27T01:18:47.718Z,1009.75
2022-08-27T01:19:47.725Z,1009.74
2022-08-27T01:20:47.686Z,1009.73
2022-08-27T01:21:50.601Z,1009.72
2022-08-27T01:22:47.699Z,1009.74
2022-08-27T01:24:08.639Z,1009.73
2022-08-27T01:24:47.653Z,1009.70
2022-08-27T01:25:47.618Z,1009.76
2022-08-27T01:26:47.595Z,1009.73
2022-08-27T01:27:47.573Z,1009.67
2022-08-27T01:28:47.570Z,1009.73
2022-08-27T01:30:08.534Z,1009.72
2022-08-27T01:30:48.103Z,1009.67
2022-08-27T01:31:47.536Z,1009.65
2022-08-27T01:32:47.525Z,1009.62
2022-08-27T01:33:47.467Z,1009.65
2022-08-27T01:34:47.467Z,1009.61
2022-08-27T01:36:08.463Z,1009.65
2022-08-27T01:36:47.414Z,1009.61
2022-08-27T01:37:47.607Z,1009.62
2022-08-27T01:38:47.392Z,1009.64
2022-08-27T01:39:47.374Z,1009.63
2022-08-27T01:40:47.350Z,1009.64
2022-08-27T01:42:08.337Z,1009.62
2022-08-27T01:42:47.324Z,1009.59
2022-08-27T01:43:47.323Z,1009.61
2022-08-27T01:44:47.311Z,1009.56
2022-08-27T01:45:47.283Z,1009.57
2022-08-27T01:46:47.304Z,1009.60
2022-08-27T01:48:08.245Z,1009.54
2022-08-27T01:48:47.236Z,1009.57
2022-08-27T01:49:47.209Z,1009.60
2022-08-27T01:50:47.200Z,1009.57
2022-08-27T01:51:47.173Z,1009.57
2022-08-27T01:52:48.107Z,1009.57
2022-08-27T01:54:08.160Z,1009.57
2022-08-27T01:54:47.125Z,1009.61
2022-08-27T01:55:47.665Z,1009.55
2022-08-27T01:56:47.101Z,1009.52
2022-08-27T01:57:47.091Z,1009.58
2022-08-27T01:58:47.088Z,1009.57
2022-08-27T02:00:08.054Z,1009.55
2022-08-27T02:00:47.072Z,1009.58
2022-08-27T02:01:47.047Z,1009.55
2022-08-27T02:02:47.034Z,1009.56
2022-08-27T02:03:46.983Z,1009.53
2022-08-27T02:04:46.954Z,1009.47
2022-08-27T02:06:07.958Z,1009.52
2022-08-27T02:06:46.948Z,1009.51
2022-08-27T02:07:46.908Z,1009.52
2022-08-27T02:08:46.917Z,1009.52
2022-08-27T02:09:46.888Z,1009.51
2022-08-27T02:10:46.989Z,1009.52
2022-08-27T02:12:07.860Z,1009.54
2022-08-27T02:12:46.840Z,1009.52
2022-08-27T02:13:46.838Z,1009.50
2022-08-27T02:14:48.484Z,1009.48
2022-08-27T02:15:46.791Z,1009.51
2022-08-27T02:16:52.630Z,1009.46
2022-08-27T02:18:07.772Z,1009.44
2022-08-27T02:18:46.744Z,1009.45
2022-08-27T02:19:46.735Z,1009.49
2022-08-27T02:20:46.690Z,1009.44
2022-08-27T02:21:46.701Z,1009.50
2022-08-27T02:22:46.664Z,1009.49
2022-08-27T02:24:08.617Z,1009.53
2022-08-27T02:24:46.650Z,1009.50
2022-08-27T02:25:46.630Z,1009.49
2022-08-27T02:26:46.679Z,1009.50
2022-08-27T02:27:47.139Z,1009.48
2022-08-27T02:28:46.588Z,1009.47
2022-08-27T02:30:07.547Z,1009.52
2022-08-27T02:30:46.563Z,1009.50
2022-08-27T02:31:46.596Z,1009.49
2022-08-27T02:32:46.511Z,1009.48
2022-08-27T02:33:46.470Z,1009.47
2022-08-27T02:34:46.494Z,1009.46
2022-08-27T02:36:07.440Z,1009.44
2022-08-27T02:36:46.453Z,1009.45
2022-08-27T02:37:46.441Z,1009.49
2022-08-27T02:38:46.401Z,1009.43
2022-08-27T02:39:46.393Z,1009.40
2022-08-27T02:40:46.388Z,1009.40
2022-08-27T02:42:07.359Z,1009.35
2022-08-27T02:42:46.330Z,1009.36
2022-08-27T02:43:46.319Z,1009.36
2022-08-27T02:44:46.314Z,1009.39
2022-08-27T02:45:46.293Z,1009.40
2022-08-27T02:46:46.314Z,1009.37
2022-08-27T02:48:07.246Z,1009.36
2022-08-27T02:48:46.304Z,1009.36
2022-08-27T02:49:48.502Z,1009.35
2022-08-27T02:50:46.330Z,1009.33
2022-08-27T02:51:46.284Z,1009.35
2022-08-27T02:52:46.586Z,1009.33
2022-08-27T02:54:08.520Z,1009.33
2022-08-27T02:54:46.157Z,1009.37
2022-08-27T02:55:46.115Z,1009.29
2022-08-27T02:56:46.107Z,1009.36
2022-08-27T02:57:46.095Z,1009.33
2022-08-27T02:58:46.069Z,1009.31
2022-08-27T03:00:07.074Z,1009.34
2022-08-27T03:00:46.038Z,1009.32
2022-08-27T03:01:46.115Z,1009.35
2022-08-27T03:02:46.738Z,1009.34
2022-08-27T03:03:46.005Z,1009.30
2022-08-27T03:04:45.962Z,1009.29
2022-08-27T03:06:06.954Z,1009.33
2022-08-27T03:06:45.942Z,1009.31
2022-08-27T03:07:45.929Z,1009.34
2022-08-27T03:08:52.309Z,1009.27
2022-08-27T03:09:45.883Z,1009.30
2022-08-27T03:10:45.875Z,1009.29
2022-08-27T03:12:07.628Z,1009.24
2022-08-27T03:12:45.832Z,1009.29
2022-08-27T03:13:45.820Z,1009.28
2022-08-27T03:14:45.793Z,1009.26
2022-08-27T03:15:45.848Z,1009.25
2022-08-27T03:16:45.769Z,1009.26
2022-08-27T03:18:06.743Z,1009.22
2022-08-27T03:18:45.769Z,1009.19
2022-08-27T03:19:45.713Z,1009.20
2022-08-27T03:20:45.711Z,1009.20
2022-08-27T03:21:45.670Z,1009.24
2022-08-27T03:22:45.754Z,1009.23
2022-08-27T03:24:09.508Z,1009.27
2022-08-27T03:24:48.147Z,1009.25
2022-08-27T03:25:45.609Z,1009.30
2022-08-27T03:26:52.893Z,1009.32
2022-08-27T03:27:45.619Z,1009.30
2022-08-27T03:28:45.573Z,1009.30
2022-08-27T03:30:06.618Z,1009.29
2022-08-27T03:30:45.533Z,1009.25
2022-08-27T03:31:45.567Z,1009.29
2022-08-27T03:32:45.522Z,1009.31
2022-08-27T03:33:45.492Z,1009.26
2022-08-27T03:34:45.464Z,1009.27
2022-08-27T03:36:06.453Z,1009.25
2022-08-27T03:36:46.905Z,1009.25
2022-08-27T03:37:46.140Z,1009.23
2022-08-27T03:38:45.404Z,1009.20
2022-08-27T03:39:45.385Z,1009.21
2022-08-27T03:40:45.401Z,1009.19
2022-08-27T03:42:06.343Z,1009.17
2022-08-27T03:42:45.343Z,1009.17
2022-08-27T03:43:45.310Z,1009.18
2022-08-27T03:44:45.315Z,1009.22
2022-08-27T03:45:57.075Z,1009.20
2022-08-27T03:46:46.208Z,1009.23
2022-08-27T03:48:06.264Z,1009.22
2022-08-27T03:48:45.239Z,1009.24
2022-08-27T03:49:45.221Z,1009.26
2022-08-27T03:50:45.214Z,1009.25
2022-08-27T03:51:45.199Z,1009.23
2022-08-27T03:52:45.170Z,1009.25
2022-08-27T03:54:06.163Z,1009.25
2022-08-27T03:54:45.138Z,1009.24
2022-08-27T03:55:45.121Z,1009.23
2022-08-27T03:56:45.102Z,1009.22
2022-08-27T03:57:45.099Z,1009.22
2022-08-27T03:58:45.085Z,1009.19
2022-08-27T04:00:06.053Z,1009.21
2022-08-27T04:00:45.058Z,1009.22
2022-08-27T04:01:45.093Z,1009.15
2022-08-27T04:02:45.046Z,1009.14
2022-08-27T04:03:44.991Z,1009.16
2022-08-27T04:04:44.982Z,1009.17
2022-08-27T04:06:05.954Z,1009.17
2022-08-27T04:06:44.953Z,1009.15
2022-08-27T04:07:44.922Z,1009.21
2022-08-27T04:08:45.675Z,1009.21
2022-08-27T04:09:44.919Z,1009.18
2022-08-27T04:10:44.879Z,1009.15
2022-08-27T04:12:05.870Z,1009.23
2022-08-27T04:12:44.843Z,1009.18
2022-08-27T04:13:44.835Z,1009.23
2022-08-27T04:14:44.808Z,1009.23
2022-08-27T04:15:44.855Z,1009.24
2022-08-27T04:16:44.781Z,1009.22
2022-08-27T04:18:05.762Z,1009.21
2022-08-27T04:18:44.775Z,1009.20
2022-08-27T04:19:44.728Z,1009.22
2022-08-27T04:20:44.723Z,1009.17
2022-08-27T04:21:44.694Z,1009.22
2022-08-27T04:22:44.686Z,1009.24
2022-08-27T04:24:05.661Z,1009.25
2022-08-27T04:24:45.602Z,1009.22
2022-08-27T04:25:44.624Z,1009.23
2022-08-27T04:26:44.625Z,1009.30
2022-08-27T04:27:44.636Z,1009.26
2022-08-27T04:28:48.810Z,1009.28
2022-08-27T04:30:05.581Z,1009.25
2022-08-27T04:30:45.222Z,1009.25
2022-08-27T04:31:44.621Z,1009.23
2022-08-27T04:32:44.511Z,1009.25
2022-08-27T04:33:50.969Z,1009.28
2022-08-27T04:34:44.480Z,1009.28
2022-08-27T04:36:05.476Z,1009.30
2022-08-27T04:36:44.448Z,1009.28
2022-08-27T04:37:44.448Z,1009.31
2022-08-27T04:38:44.418Z,1009.31
2022-08-27T04:39:49.760Z,1009.32
2022-08-27T04:40:44.425Z,1009.30
2022-08-27T04:42:05.376Z,1009.33
2022-08-27T04:42:44.364Z,1009.30
2022-08-27T04:43:44.343Z,1009.34
2022-08-27T04:44:44.334Z,1009.35
2022-08-27T04:45:44.303Z,1009.31
2022-08-27T04:46:47.902Z,1009.30
2022-08-27T04:48:05.317Z,1009.31
2022-08-27T04:48:48.057Z,1009.32
2022-08-27T04:49:44.236Z,1009.31
2022-08-27T04:50:44.234Z,1009.34
2022-08-27T04:51:44.237Z,1009.31
2022-08-27T04:52:44.194Z,1009.31
2022-08-27T04:54:05.698Z,1009.31
2022-08-27T04:54:44.153Z,1009.31
2022-08-27T04:55:44.155Z,1009.33
2022-08-27T04:56:44.125Z,1009.28
2022-08-27T04:57:44.124Z,1009.27
2022-08-27T04:58:44.120Z,1009.28
2022-08-27T05:00:05.092Z,1009.25
2022-08-27T05:00:44.123Z,1009.25
2022-08-27T05:01:44.101Z,1009.26
2022-08-27T05:02:44.049Z,1009.25
2022-08-27T05:03:44.021Z,1009.25
2022-08-27T05:04:44.062Z,1009.25
2022-08-27T05:06:05.023Z,1009.26
2022-08-27T05:06:43.980Z,1009.22
2022-08-27T05:07:43.982Z,1009.25
2022-08-27T05:08:43.943Z,1009.19
2022-08-27T05:09:43.953Z,1009.19
2022-08-27T05:12:04.926Z,1009.19
2022-08-27T05:12:44.584Z,1009.17
2022-08-27T05:13:43.879Z,1009.16
2022-08-27T05:14:43.889Z,1009.18
2022-08-27T05:15:44.777Z,1009.17
2022-08-27T05:18:17.956Z,1009.17
2022-08-27T05:19:15.333Z,1009.21
2022-08-27T05:20:15.324Z,1009.19
2022-08-27T05:21:15.392Z,1009.22
2022-08-27T05:22:15.327Z,1009.21
2022-08-27T05:23:15.956Z,1009.20
2022-08-27T05:24:15.254Z,1009.18
2022-08-27T05:25:15.256Z,1009.20
2022-08-27T05:26:15.284Z,1009.15
2022-08-27T05:27:15.254Z,1009.16
2022-08-27T05:28:15.202Z,1009.22
2022-08-27T05:29:15.184Z,1009.18
2022-08-27T05:30:15.186Z,1009.12
2022-08-27T05:31:15.276Z,1009.18
2022-08-27T05:32:15.931Z,1009.15
2022-08-27T05:33:15.119Z,1009.15
2022-08-27T05:34:16.475Z,1009.15
2022-08-27T05:35:15.826Z,1009.09
2022-08-27T05:36:15.109Z,1009.12
2022-08-27T05:37:15.108Z,1009.12
2022-08-27T05:38:15.050Z,1009.14
2022-08-27T05:39:15.035Z,1009.11
2022-08-27T05:40:15.087Z,1009.13
2022-08-27T05:41:15.021Z,1009.09
2022-08-27T05:42:14.981Z,1009.12
2022-08-27T05:43:14.969Z,1009.11
2022-08-27T05:44:39.433Z,1009.08
2022-08-27T05:45:15.000Z,1009.07
2022-08-27T05:46:17.512Z,1009.07
2022-08-27T05:47:14.908Z,1009.04
2022-08-27T05:48:14.899Z,1009.07
2022-08-27T05:49:14.882Z,1009.07
2022-08-27T05:50:14.878Z,1009.08
2022-08-27T05:51:16.187Z,1009.03
2022-08-27T05:52:14.833Z,1009.07
2022-08-27T05:53:14.832Z,1009.02
2022-08-27T05:54:14.825Z,1009.05
2022-08-27T05:55:14.819Z,1009.03
2022-08-27T05:56:14.772Z,1009.06
2022-08-27T05:57:14.757Z,1009.05
2022-08-27T05:58:14.752Z,1009.04
2022-08-27T05:59:14.747Z,1009.05
2022-08-27T06:00:15.709Z,1009.05
2022-08-27T06:01:14.700Z,1009.03
2022-08-27T06:02:14.742Z,1009.06
2022-08-27T06:03:14.670Z,1009.03
2022-08-27T06:04:17.944Z,1009.07
2022-08-27T06:05:15.522Z,1009.03
2022-08-27T06:06:14.619Z,1009.04
2022-08-27T06:07:14.616Z,1009.06
2022-08-27T06:08:14.611Z,1009.07
2022-08-27T06:09:14.610Z,1009.08
2022-08-27T06:10:14.565Z,1009.07
2022-08-27T06:11:14.549Z,1009.04
2022-08-27T06:12:14.555Z,1009.03
2022-08-27T06:13:14.525Z,1009.03
2022-08-27T06:14:14.541Z,1009.08
2022-08-27T06:15:14.495Z,1009.08
2022-08-27T06:16:14.528Z,1009.10
2022-08-27T06:17:14.479Z,1009.07
2022-08-27T06:18:14.456Z,1009.12
2022-08-27T06:19:14.469Z,1009.12
2022-08-27T06:20:14.424Z,1009.13
2022-08-27T06:21:14.407Z,1009.08
2022-08-27T06:22:14.410Z,1009.10
2022-08-27T06:23:14.383Z,1009.10
2022-08-27T06:24:14.954Z,1009.09
2022-08-27T06:25:14.344Z,1009.09
2022-08-27T06:26:14.345Z,1009.10
2022-08-27T06:27:14.320Z,1009.13
2022-08-27T06:28:14.317Z,1009.09
2022-08-27T06:29:14.340Z,1009.08
2022-08-27T06:30:17.399Z,1009.10
2022-08-27T06:31:14.300Z,1009.10
2022-08-27T06:32:14.251Z,1009.11
2022-08-27T06:33:14.264Z,1009.16
2022-08-27T06:34:14.271Z,1009.10
2022-08-27T06:35:14.881Z,1009.09
2022-08-27T06:36:14.213Z,1009.09
2022-08-27T06:37:14.205Z,1009.11
2022-08-27T06:38:14.193Z,1009.12
2022-08-27T06:39:14.202Z,1009.12
2022-08-27T06:40:14.237Z,1009.10
2022-08-27T06:41:23.316Z,1009.11
2022-08-27T06:42:14.138Z,1009.14
2022-08-27T06:43:14.111Z,1009.09
2022-08-27T06:44:14.128Z,1009.10
2022-08-27T06:45:14.070Z,1009.06
2022-08-27T06:46:14.186Z,1009.05
2022-08-27T06:47:14.065Z,1009.07
2022-08-27T06:48:14.063Z,1009.09
2022-08-27T06:49:14.070Z,1009.05
2022-08-27T06:50:17.630Z,1009.03
2022-08-27T06:51:14.000Z,1009.02
2022-08-27T06:52:13.996Z,1009.01
2022-08-27T06:53:13.994Z,1008.98
2022-08-27T06:54:13.981Z,1008.98
2022-08-27T06:55:13.941Z,1008.98
2022-08-27T06:56:13.943Z,1008.97
2022-08-27T06:57:13.930Z,1008.96
2022-08-27T06:58:13.934Z,1008.95
2022-08-27T06:59:13.932Z,1008.93
2022-08-27T07:00:13.878Z,1008.96
2022-08-27T07:01:13.916Z,1008.96
2022-08-27T07:02:13.930Z,1008.92
2022-08-27T07:03:13.876Z,1008.93
2022-08-27T07:04:13.847Z,1008.94
2022-08-27T07:05:14.497Z,1008.97
2022-08-27T07:06:13.804Z,1008.98
2022-08-27T07:07:13.804Z,1009.02
2022-08-27T07:08:13.795Z,1008.99
2022-08-27T07:09:13.777Z,1008.97
2022-08-27T07:10:14.524Z,1008.96
2022-08-27T07:11:13.749Z,1008.99
2022-08-27T07:12:13.745Z,1008.97
2022-08-27T07:13:13.728Z,1008.95
2022-08-27T07:14:13.729Z,1008.91
2022-08-27T07:15:13.729Z,1008.93
2022-08-27T07:16:14.570Z,1008.93
2022-08-27T07:17:16.372Z,1008.91
2022-08-27T07:18:13.681Z,1008.95
2022-08-27T07:19:13.669Z,1008.95
2022-08-27T07:20:13.655Z,1008.87
2022-08-27T07:21:13.659Z,1008.86
2022-08-27T07:22:14.498Z,1008.89
2022-08-27T07:23:13.614Z,1008.89
2022-08-27T07:24:13.611Z,1008.88
2022-08-27T07:25:13.607Z,1008.85
2022-08-27T07:26:13.603Z,1008.87
2022-08-27T07:27:13.606Z,1008.86
2022-08-27T07:28:13.593Z,1008.81
2022-08-27T07:29:13.550Z,1008.83
2022-08-27T07:30:13.538Z,1008.86
2022-08-27T07:31:13.637Z,1008.87
2022-08-27T07:32:13.544Z,1008.87
2022-08-27T07:33:13.556Z,1008.92
2022-08-27T07:34:13.533Z,1008.88
2022-08-27T07:35:13.492Z,1008.87
2022-08-27T07:36:13.477Z,1008.90
2022-08-27T07:37:13.482Z,1008.87
2022-08-27T07:38:13.486Z,1008.84
2022-08-27T07:39:14.007Z,1008.87
2022-08-27T07:40:13.520Z,1008.88
2022-08-27T07:41:13.426Z,1008.91
2022-08-27T07:42:13.412Z,1008.88
2022-08-27T07:43:13.418Z,1008.87
2022-08-27T07:44:13.425Z,1008.84
2022-08-27T07:45:13.414Z,1008.90
2022-08-27T07:46:13.456Z,1008.91
2022-08-27T07:47:13.370Z,1008.88
2022-08-27T07:48:13.355Z,1008.83
2022-08-27T07:49:13.359Z,1008.84
2022-08-27T07:50:13.375Z,1008.81
2022-08-27T07:51:13.371Z,1008.81
2022-08-27T07:52:14.024Z,1008.83
2022-08-27T07:53:13.305Z,1008.83
2022-08-27T07:54:13.292Z,1008.87
2022-08-27T07:55:13.296Z,1008.85
2022-08-27T07:56:13.288Z,1008.90
2022-08-27T07:57:13.307Z,1008.84
2022-08-27T07:58:18.142Z,1008.84
2022-08-27T07:59:13.252Z,1008.87
2022-08-27T08:00:13.260Z,1008.88
2022-08-27T08:01:13.303Z,1008.85
2022-08-27T08:02:13.265Z,1008.83
2022-08-27T08:03:13.249Z,1008.88
2022-08-27T08:04:16.971Z,1008.83
2022-08-27T08:05:13.186Z,1008.81
2022-08-27T08:06:13.198Z,1008.82
2022-08-27T08:07:13.171Z,1008.84
2022-08-27T08:08:13.180Z,1008.86
2022-08-27T08:09:13.183Z,1008.85
2022-08-27T08:10:13.178Z,1008.84
2022-08-27T08:11:13.127Z,1008.84
2022-08-27T08:12:13.123Z,1008.84
2022-08-27T08:13:13.150Z,1008.88
2022-08-27T08:14:13.136Z,1008.86
2022-08-27T08:15:13.131Z,1008.84
2022-08-27T08:16:13.103Z,1008.79
2022-08-27T08:17:13.125Z,1008.81
2022-08-27T08:18:13.065Z,1008.83
2022-08-27T08:19:13.053Z,1008.81
2022-08-27T08:20:24.135Z,1008.82
2022-08-27T08:21:13.068Z,1008.80
2022-08-27T08:22:13.079Z,1008.81
2022-08-27T08:23:13.010Z,1008.79
2022-08-27T08:24:13.017Z,1008.73
2022-08-27T08:25:13.024Z,1008.73
2022-08-27T08:26:12.993Z,1008.71
2022-08-27T08:27:12.986Z,1008.74
2022-08-27T08:28:12.996Z,1008.78
2022-08-27T08:29:13.317Z,1008.75
2022-08-27T08:30:12.985Z,1008.75
2022-08-27T08:31:12.949Z,1008.75
2022-08-27T08:32:12.932Z,1008.74
2022-08-27T08:33:12.934Z,1008.74
2022-08-27T08:34:15.098Z,1008.75
2022-08-27T08:35:12.891Z,1008.77
2022-08-27T08:36:12.886Z,1008.76
2022-08-27T08:37:12.863Z,1008.76
2022-08-27T08:38:12.945Z,1008.77
2022-08-27T08:39:12.861Z,1008.74
2022-08-27T08:40:12.950Z,1008.73
2022-08-27T08:41:12.883Z,1008.73
2022-08-27T08:42:12.829Z,1008.73
2022-08-27T08:43:12.806Z,1008.71
2022-08-27T08:44:12.809Z,1008.73
2022-08-27T08:45:12.802Z,1008.76
2022-08-27T08:46:12.896Z,1008.73
2022-08-27T08:47:12.817Z,1008.74
2022-08-27T08:48:12.812Z,1008.75
2022-08-27T08:49:12.760Z,1008.76
2022-08-27T08:50:15.680Z,1008.76
2022-08-27T08:51:12.743Z,1008.73
2022-08-27T08:52:12.742Z,1008.76
2022-08-27T08:53:13.572Z,1008.75
2022-08-27T08:54:12.700Z,1008.76
2022-08-27T08:55:12.694Z,1008.79
2022-08-27T08:56:12.693Z,1008.74
2022-08-27T08:57:12.690Z,1008.75
2022-08-27T08:58:12.947Z,1008.76
2022-08-27T08:59:13.560Z,1008.76
2022-08-27T09:00:12.767Z,1008.81
2022-08-27T09:01:12.649Z,1008.74
2022-08-27T09:02:13.574Z,1008.76
2022-08-27T09:03:12.617Z,1008.78
2022-08-27T09:04:12.710Z,1008.79
2022-08-27T09:05:13.566Z,1008.75
2022-08-27T09:06:12.587Z,1008.80
2022-08-27T09:07:12.571Z,1008.77
2022-08-27T09:08:32.936Z,1008.80
2022-08-27T09:09:12.558Z,1008.78
2022-08-27T09:10:12.573Z,1008.76
2022-08-27T09:11:12.565Z,1008.76
2022-08-27T09:12:12.521Z,1008.77
2022-08-27T09:13:12.513Z,1008.73
2022-08-27T09:14:13.419Z,1008.71
2022-08-27T09:15:12.708Z,1008.69
2022-08-27T09:16:12.534Z,1008.70
2022-08-27T09:17:12.564Z,1008.74
2022-08-27T09:18:14.148Z,1008.75
2022-08-27T09:19:13.225Z,1008.76
2022-08-27T09:20:13.622Z,1008.79
2022-08-27T09:21:12.451Z,1008.76
2022-08-27T09:22:12.453Z,1008.76
2022-08-27T09:23:12.419Z,1008.75
2022-08-27T09:24:13.083Z,1008.75
2022-08-27T09:25:12.462Z,1008.74
2022-08-27T09:26:12.392Z,1008.71
2022-08-27T09:27:12.389Z,1008.71
2022-08-27T09:28:12.479Z,1008.62
2022-08-27T09:29:12.376Z,1008.63
2022-08-27T09:30:15.117Z,1008.60
2022-08-27T09:31:12.447Z,1008.60
2022-08-27T09:32:12.333Z,1008.61
2022-08-27T09:33:12.329Z,1008.58
2022-08-27T09:34:12.333Z,1008.62
2022-08-27T09:35:12.326Z,1008.61
2022-08-27T09:36:12.347Z,1008.58
2022-08-27T09:37:12.321Z,1008.56
2022-08-27T09:38:12.392Z,1008.57
2022-08-27T09:39:12.267Z,1008.58
2022-08-27T09:40:13.606Z,1008.54
2022-08-27T09:41:12.281Z,1008.54
2022-08-27T09:42:12.263Z,1008.53
2022-08-27T09:43:13.090Z,1008.53
2022-08-27T09:44:12.233Z,1008.57
2022-08-27T09:45:12.216Z,1008.58
2022-08-27T09:46:12.235Z,1008.58
2022-08-27T09:47:12.218Z,1008.52
2022-08-27T09:48:12.294Z,1008.56
2022-08-27T09:49:12.213Z,1008.61
2022-08-27T09:50:12.167Z,1008.58
2022-08-27T09:51:12.160Z,1008.57
2022-08-27T09:52:12.148Z,1008.61
2022-08-27T09:53:12.156Z,1008.65
2022-08-27T09:54:12.174Z,1008.59
2022-08-27T09:55:12.151Z,1008.63
2022-08-27T09:56:13.097Z,1008.61
2022-08-27T09:57:12.135Z,1008.62
2022-08-27T09:58:12.302Z,1008.59
2022-08-27T09:59:12.094Z,1008.58
2022-08-27T10:00:12.097Z,1008.52
2022-08-27T10:01:12.103Z,1008.52
2022-08-27T10:02:12.342Z,1008.52
2022-08-27T10:03:12.115Z,1008.55
2022-08-27T10:04:12.248Z,1008.53
2022-08-27T10:05:12.039Z,1008.56
2022-08-27T10:06:12.039Z,1008.54
2022-08-27T10:07:12.047Z,1008.60
2022-08-27T10:08:12.276Z,1008.60
2022-08-27T10:09:12.014Z,1008.54
2022-08-27T10:10:12.069Z,1008.47
2022-08-27T10:11:12.037Z,1008.52
2022-08-27T10:12:11.978Z,1008.45
2022-08-27T10:13:11.988Z,1008.49
2022-08-27T10:14:11.989Z,1008.47
2022-08-27T10:15:12.617Z,1008.50
2022-08-27T10:16:12.665Z,1008.43
2022-08-27T10:17:11.937Z,1008.52
2022-08-27T10:18:12.164Z,1008.51
2022-08-27T10:19:11.926Z,1008.54
2022-08-27T10:20:11.930Z,1008.45
2022-08-27T10:21:11.926Z,1008.50
2022-08-27T10:22:11.917Z,1008.53
2022-08-27T10:23:11.921Z,1008.54
2022-08-27T10:24:11.947Z,1008.54
2022-08-27T10:25:11.875Z,1008.50
2022-08-27T10:26:11.874Z,1008.49
2022-08-27T10:27:11.879Z,1008.50
2022-08-27T10:28:12.088Z,1008.47
2022-08-27T10:29:11.859Z,1008.48
2022-08-27T10:30:11.825Z,1008.48
2022-08-27T10:31:11.843Z,1008.49
2022-08-27T10:32:11.810Z,1008.51
2022-08-27T10:33:11.821Z,1008.45
2022-08-27T10:34:12.366Z,1008.44
2022-08-27T10:35:11.813Z,1008.44
2022-08-27T10:36:11.815Z,1008.46
2022-08-27T10:37:11.833Z,1008.42
2022-08-27T10:38:12.001Z,1008.40
2022-08-27T10:39:11.755Z,1008.42
2022-08-27T10:40:11.834Z,1008.44
2022-08-27T10:41:11.754Z,1008.44
2022-08-27T10:42:11.752Z,1008.48
2022-08-27T10:43:11.735Z,1008.46
2022-08-27T10:44:11.738Z,1008.44
2022-08-27T10:45:11.717Z,1008.41
2022-08-27T10:46:11.727Z,1008.41
2022-08-27T10:47:11.708Z,1008.42
2022-08-27T10:48:11.909Z,1008.41
2022-08-27T10:49:15.838Z,1008.37
2022-08-27T10:50:11.689Z,1008.44
2022-08-27T10:51:11.665Z,1008.44
2022-08-27T10:52:11.659Z,1008.45
2022-08-27T10:53:11.648Z,1008.40
2022-08-27T10:54:11.653Z,1008.45
2022-08-27T10:55:11.656Z,1008.42
2022-08-27T10:56:11.633Z,1008.43
2022-08-27T10:57:28.936Z,1008.45
2022-08-27T10:58:11.818Z,1008.44
2022-08-27T10:59:11.599Z,1008.48
2022-08-27T11:00:11.684Z,1008.45
2022-08-27T11:01:11.661Z,1008.47
2022-08-27T11:02:11.662Z,1008.49
2022-08-27T11:03:13.883Z,1008.47
2022-08-27T11:04:11.572Z,1008.46
2022-08-27T11:05:11.597Z,1008.46
2022-08-27T11:06:11.546Z,1008.44
2022-08-27T11:07:11.541Z,1008.44
2022-08-27T11:08:11.739Z,1008.46
2022-08-27T11:09:11.539Z,1008.41
2022-08-27T11:10:11.622Z,1008.37
2022-08-27T11:11:57.138Z,1008.41
2022-08-27T11:12:15.368Z,1008.38
2022-08-27T11:13:11.490Z,1008.37
2022-08-27T11:14:11.486Z,1008.38
2022-08-27T11:15:13.190Z,1008.38
2022-08-27T11:16:11.542Z,1008.36
2022-08-27T11:17:11.466Z,1008.35
2022-08-27T11:18:11.707Z,1008.33
2022-08-27T11:19:11.441Z,1008.35
2022-08-27T11:20:11.427Z,1008.35
2022-08-27T11:21:11.431Z,1008.30
2022-08-27T11:22:14.908Z,1008.40
2022-08-27T11:23:11.442Z,1008.38
2022-08-27T11:24:11.444Z,1008.37
2022-08-27T11:25:11.468Z,1008.38
2022-08-27T11:26:11.379Z,1008.34
2022-08-27T11:27:11.376Z,1008.35
2022-08-27T11:28:11.506Z,1008.33
2022-08-27T11:29:11.361Z,1008.35
2022-08-27T11:30:11.359Z,1008.30
2022-08-27T11:31:11.410Z,1008.29
2022-08-27T11:32:11.387Z,1008.27
2022-08-27T11:33:13.928Z,1008.30
2022-08-27T11:34:11.316Z,1008.28
2022-08-27T11:35:11.320Z,1008.27
2022-08-27T11:36:11.304Z,1008.26
2022-08-27T11:37:11.317Z,1008.28
2022-08-27T11:38:11.486Z,1008.30
2022-08-27T11:39:11.310Z,1008.25
2022-08-27T11:40:11.313Z,1008.27
2022-08-27T11:41:11.258Z,1008.28
2022-08-27T11:42:11.275Z,1008.27
2022-08-27T11:43:11.248Z,1008.26
2022-08-27T11:44:11.242Z,1008.22
2022-08-27T11:45:11.248Z,1008.22
2022-08-27T11:46:11.260Z,1008.23
2022-08-27T11:47:11.242Z,1008.24
2022-08-27T11:48:11.379Z,1008.26
2022-08-27T11:49:11.214Z,1008.25
2022-08-27T11:50:11.193Z,1008.29
2022-08-27T11:51:11.213Z,1008.26
2022-08-27T11:52:11.193Z,1008.27
2022-08-27T11:53:11.161Z,1008.29
2022-08-27T11:54:11.156Z,1008.23
2022-08-27T11:55:11.145Z,1008.26
2022-08-27T11:56:11.161Z,1008.22
2022-08-27T11:57:11.141Z,1008.19
2022-08-27T11:58:11.492Z,1008.26
2022-08-27T11:59:11.143Z,1008.24
2022-08-27T12:00:11.116Z,1008.23
2022-08-27T12:01:11.102Z,1008.23
2022-08-27T12:02:11.101Z,1008.24
2022-08-27T12:03:11.159Z,1008.23
2022-08-27T12:04:11.138Z,1008.26
2022-08-27T12:05:11.102Z,1008.29
2022-08-27T12:06:11.085Z,1008.31
2022-08-27T12:07:11.965Z,1008.27